createdAt,value
2023-01-08T00:01:25.882Z,100618.19
2023-01-08T00:03:53.745Z,100578.91
2023-01-08T00:06:22.191Z,100603.81
2023-01-08T00:08:50.036Z,100603.00
2023-01-08T00:11:17.929Z,100608.69
2023-01-08T00:13:46.074Z,100615.44
2023-01-08T00:16:16.993Z,100591.63
2023-01-08T00:18:46.335Z,100537.47
2023-01-08T00:21:14.564Z,100583.19
2023-01-08T00:23:42.642Z,100591.28
2023-01-08T00:26:11.357Z,100562.06
2023-01-08T00:28:39.704Z,100554.72
2023-01-08T00:31:10.513Z,100588.84
2023-01-08T00:33:39.164Z,100562.31
2023-01-08T00:36:08.933Z,100560.91
2023-01-08T00:38:36.977Z,100521.19
2023-01-08T00:41:05.496Z,100574.25
2023-01-08T00:43:34.009Z,100585.88
2023-01-08T00:46:01.929Z,100536.88
2023-01-08T00:48:29.669Z,100477.31
2023-01-08T00:50:57.643Z,100553.13
2023-01-08T00:53:25.383Z,100579.91
2023-01-08T00:56:03.638Z,100575.28
2023-01-08T00:58:31.788Z,100583.66
2023-01-08T01:00:59.759Z,100573.09
2023-01-08T01:03:28.014Z,100557.41
2023-01-08T01:06:03.066Z,100565.47
2023-01-08T01:08:31.224Z,100570.38
2023-01-08T01:10:59.029Z,100564.72
2023-01-08T01:13:26.907Z,100550.91
2023-01-08T01:16:02.715Z,100577.19
2023-01-08T01:18:31.426Z,100565.00
2023-01-08T01:20:59.095Z,100510.28
2023-01-08T01:23:26.824Z,100583.66
2023-01-08T01:25:54.962Z,100576.91
2023-01-08T01:28:22.794Z,100502.19
2023-01-08T01:30:57.567Z,100508.66
2023-01-08T01:33:25.544Z,100524.88
2023-01-08T01:36:01.219Z,100571.47
2023-01-08T01:38:29.937Z,100562.22
2023-01-08T01:40:58.308Z,100549.47
2023-01-08T01:43:43.752Z,100555.97
2023-01-08T01:46:41.165Z,100562.47
2023-01-08T01:49:18.596Z,100492.38
2023-01-08T01:51:54.971Z,100563.56
2023-01-08T01:54:23.916Z,100546.50
2023-01-08T01:56:51.822Z,100537.34
2023-01-08T01:59:20.141Z,100538.72
2023-01-08T02:01:48.338Z,100547.91
2023-01-08T02:04:16.643Z,100578.50
2023-01-08T02:06:58.199Z,100575.22
2023-01-08T02:09:35.757Z,100575.81
2023-01-08T02:12:17.965Z,100559.84
2023-01-08T02:14:55.116Z,100582.56
2023-01-08T02:17:37.610Z,100550.34
2023-01-08T02:20:31.538Z,100576.31
2023-01-08T02:23:26.791Z,100576.03
2023-01-08T02:26:13.870Z,100544.97
2023-01-08T02:28:54.182Z,100571.75
2023-01-08T02:31:24.637Z,100550.91
2023-01-08T02:33:52.601Z,100528.41
2023-01-08T02:36:43.870Z,100553.50
2023-01-08T02:39:29.824Z,100554.91
2023-01-08T02:42:04.824Z,100547.03
2023-01-08T02:44:51.291Z,100544.84
2023-01-08T02:47:36.252Z,100511.81
2023-01-08T02:50:06.772Z,100535.06
2023-01-08T02:52:39.050Z,100547.03
2023-01-08T02:55:08.657Z,100544.84
2023-01-08T02:57:38.766Z,100547.03
2023-01-08T03:00:08.869Z,100518.56
2023-01-08T03:02:39.993Z,100492.03
2023-01-08T03:05:17.066Z,100513.38
2023-01-08T03:07:44.863Z,100521.50
2023-01-08T03:10:12.878Z,100523.41
2023-01-08T03:12:49.321Z,100508.50
2023-01-08T03:15:43.602Z,100457.63
2023-01-08T03:18:15.683Z,100467.38
2023-01-08T03:20:45.060Z,100439.81
2023-01-08T03:23:15.139Z,100468.41
2023-01-08T03:25:46.335Z,100454.63
2023-01-08T03:28:30.755Z,100492.22
2023-01-08T03:30:59.523Z,100481.66
2023-01-08T03:33:30.436Z,100460.28
2023-01-08T03:36:01.598Z,100480.28
2023-01-08T03:38:42.153Z,100479.75
2023-01-08T03:41:19.218Z,100456.47
2023-01-08T03:43:47.274Z,100481.63
2023-01-08T03:46:21.983Z,100461.34
2023-01-08T03:48:51.340Z,100433.22
2023-01-08T03:51:20.611Z,100455.34
2023-01-08T03:53:52.574Z,100436.44
2023-01-08T03:56:20.438Z,100400.19
2023-01-08T03:58:48.766Z,100451.31
2023-01-08T04:01:19.166Z,100445.88
2023-01-08T04:03:47.371Z,100462.59
2023-01-08T04:06:15.169Z,100424.47
2023-01-08T04:08:42.825Z,100416.84
2023-01-08T04:11:10.634Z,100399.53
2023-01-08T04:13:38.382Z,100440.06
2023-01-08T04:16:06.505Z,100404.09
2023-01-08T04:18:35.079Z,100419.47
2023-01-08T04:21:02.784Z,100415.66
2023-01-08T04:23:30.695Z,100325.13
2023-01-08T04:25:58.681Z,100332.88
2023-01-08T04:28:26.762Z,100364.19
2023-01-08T04:30:55.486Z,100347.44
2023-01-08T04:33:23.204Z,100413.97
2023-01-08T04:35:51.103Z,100364.25
2023-01-08T04:38:18.908Z,100404.28
2023-01-08T04:40:46.650Z,100353.47
2023-01-08T04:43:14.323Z,100391.59
2023-01-08T04:45:42.314Z,100312.81
2023-01-08T04:48:10.294Z,100388.50
2023-01-08T04:50:37.999Z,100384.16
2023-01-08T04:53:05.783Z,100397.75
2023-01-08T04:55:34.006Z,100386.38
2023-01-08T04:58:02.599Z,100377.13
2023-01-08T05:00:30.575Z,100322.03
2023-01-08T05:02:58.536Z,100333.38
2023-01-08T05:05:26.484Z,100327.41
2023-01-08T05:07:54.109Z,100323.63
2023-01-08T05:10:22.754Z,100356.50
2023-01-08T05:12:50.611Z,100353.22
2023-01-08T05:15:18.497Z,100341.03
2023-01-08T05:17:46.123Z,100304.47
2023-01-08T05:20:14.274Z,100281.00
2023-01-08T05:22:41.989Z,100327.97
2023-01-08T05:25:10.137Z,100326.06
2023-01-08T05:27:37.809Z,100299.13
2023-01-08T05:30:06.290Z,100354.00
2023-01-08T05:32:34.038Z,100327.56
2023-01-08T05:35:01.848Z,100298.63
2023-01-08T05:37:29.468Z,100331.84
2023-01-08T05:39:57.242Z,100325.94
2023-01-08T05:42:26.241Z,100320.03
2023-01-08T05:44:55.118Z,100324.66
2023-01-08T05:47:22.805Z,100349.78
2023-01-08T05:49:50.674Z,100307.13
2023-01-08T05:52:18.547Z,100367.59
2023-01-08T05:54:46.217Z,100374.38
2023-01-08T05:57:14.067Z,100389.56
2023-01-08T05:59:41.720Z,100387.97
2023-01-08T06:02:09.892Z,100341.50
2023-01-08T06:04:37.786Z,100391.78
2023-01-08T06:07:05.597Z,100371.53
2023-01-08T06:09:33.520Z,100390.69
2023-01-08T06:12:01.312Z,100381.47
2023-01-08T06:14:30.370Z,100376.84
2023-01-08T06:16:58.129Z,100343.91
2023-01-08T06:19:25.861Z,100381.25
2023-01-08T06:21:53.799Z,100346.16
2023-01-08T06:24:21.638Z,100352.09
2023-01-08T06:26:49.505Z,100366.94
2023-01-08T06:29:17.659Z,100386.16
2023-01-08T06:31:45.465Z,100368.06
2023-01-08T06:34:13.411Z,100398.06
2023-01-08T06:36:41.345Z,100416.47
2023-01-08T06:39:09.357Z,100394.81
2023-01-08T06:41:37.061Z,100406.44
2023-01-08T06:44:05.453Z,100402.38
2023-01-08T06:46:38.338Z,100361.91
2023-01-08T06:49:09.870Z,100304.78
2023-01-08T06:51:37.574Z,100350.97
2023-01-08T06:54:05.540Z,100383.63
2023-01-08T06:56:42.711Z,100384.44
2023-01-08T06:59:20.396Z,100390.09
2023-01-08T07:01:48.624Z,100381.44
2023-01-08T07:04:18.047Z,100382.53
2023-01-08T07:06:47.095Z,100379.81
2023-01-08T07:09:15.767Z,100376.53
2023-01-08T07:11:43.490Z,100357.09
2023-01-08T07:14:11.771Z,100327.16
2023-01-08T07:16:39.648Z,100358.22
2023-01-08T07:19:07.575Z,100374.38
2023-01-08T07:21:35.787Z,100373.28
2023-01-08T07:24:04.284Z,100377.91
2023-01-08T07:26:32.202Z,100358.22
2023-01-08T07:29:00.018Z,100341.19
2023-01-08T07:31:27.913Z,100378.44
2023-01-08T07:33:55.800Z,100335.50
2023-01-08T07:36:24.650Z,100371.41
2023-01-08T07:38:53.820Z,100379.56
2023-01-08T07:41:22.975Z,100379.03
2023-01-08T07:43:51.715Z,100358.81
2023-01-08T07:46:19.500Z,100356.34
2023-01-08T07:48:47.685Z,100338.00
2023-01-08T07:51:15.491Z,100336.63
2023-01-08T07:53:43.222Z,100350.34
2023-01-08T07:56:11.855Z,100304.94
2023-01-08T07:58:39.884Z,100368.34
2023-01-08T08:01:11.000Z,100374.81
2023-01-08T08:03:40.956Z,100356.34
2023-01-08T08:06:09.578Z,100347.91
2023-01-08T08:08:37.539Z,100338.19
2023-01-08T08:11:07.562Z,100351.38
2023-01-08T08:13:35.829Z,100337.91
2023-01-08T08:16:05.233Z,100312.50
2023-01-08T08:18:32.977Z,100327.63
2023-01-08T08:21:01.562Z,100343.78
2023-01-08T08:23:29.552Z,100358.94
2023-01-08T08:25:57.280Z,100355.66
2023-01-08T08:28:24.949Z,100273.63
2023-01-08T08:30:53.381Z,100346.22
2023-01-08T08:33:22.154Z,100339.00
2023-01-08T08:35:51.305Z,100336.44
2023-01-08T08:38:19.228Z,100379.41
2023-01-08T08:40:47.058Z,100329.66
2023-01-08T08:43:14.825Z,100326.41
2023-01-08T08:45:42.598Z,100361.75
2023-01-08T08:48:11.408Z,100307.19
2023-01-08T08:50:39.587Z,100368.81
2023-01-08T08:53:07.847Z,100327.41
2023-01-08T08:55:35.797Z,100356.63
2023-01-08T08:58:12.128Z,100326.09
2023-01-08T09:00:41.837Z,100358.97
2023-01-08T09:03:17.880Z,100355.91
2023-01-08T09:06:04.404Z,100275.28
2023-01-08T09:08:32.368Z,100280.59
2023-01-08T09:11:03.004Z,100321.31
2023-01-08T09:13:30.758Z,100318.81
2023-01-08T09:15:59.630Z,100320.25
2023-01-08T09:18:27.459Z,100272.59
2023-01-08T09:20:55.167Z,100298.09
2023-01-08T09:23:22.988Z,100305.88
2023-01-08T09:25:50.808Z,100331.78
2023-01-08T09:28:18.803Z,100328.81
2023-01-08T09:30:46.531Z,100319.38
2023-01-08T09:33:14.355Z,100318.50
2023-01-08T09:35:43.967Z,100281.81
2023-01-08T09:38:12.248Z,100293.72
2023-01-08T09:41:04.142Z,100333.97
2023-01-08T09:43:35.420Z,100331.25
2023-01-08T09:46:06.190Z,100341.00
2023-01-08T09:48:37.222Z,100313.19
2023-01-08T09:51:09.770Z,100322.66
2023-01-08T09:53:38.974Z,100325.44
2023-01-08T09:56:18.905Z,100286.78
2023-01-08T09:58:59.217Z,100326.72
2023-01-08T10:01:29.515Z,100336.72
2023-01-08T10:04:04.737Z,100330.78
2023-01-08T10:06:32.745Z,100266.28
2023-01-08T10:09:00.879Z,100291.63
2023-01-08T10:11:38.779Z,100320.28
2023-01-08T10:14:19.907Z,100316.72
2023-01-08T10:17:04.371Z,100278.38
2023-01-08T10:19:32.141Z,100318.94
2023-01-08T10:22:00.246Z,100290.88
2023-01-08T10:24:36.016Z,100229.28
2023-01-08T10:27:28.195Z,100317.00
2023-01-08T10:30:06.470Z,100313.72
2023-01-08T10:32:37.580Z,100305.25
2023-01-08T10:35:07.910Z,100306.06
2023-01-08T10:37:42.743Z,100305.25
2023-01-08T10:40:34.592Z,100275.38
2023-01-08T10:43:15.113Z,100244.28
2023-01-08T10:45:44.314Z,100286.13
2023-01-08T10:48:18.689Z,100226.25
2023-01-08T10:50:47.944Z,100257.06
2023-01-08T10:53:35.114Z,100246.31
2023-01-08T10:56:05.433Z,100218.03
2023-01-08T10:58:43.472Z,100252.31
2023-01-08T11:01:32.846Z,100275.19
2023-01-08T11:04:06.588Z,100267.94
2023-01-08T11:06:45.733Z,100253.31
2023-01-08T11:09:23.700Z,100237.34
2023-01-08T11:11:51.887Z,100246.50
2023-01-08T11:14:30.526Z,100241.63
2023-01-08T11:16:59.721Z,100222.38
2023-01-08T11:19:30.753Z,100198.88
2023-01-08T11:22:01.591Z,100205.13
2023-01-08T11:24:32.941Z,100193.06
2023-01-08T11:27:14.499Z,100193.78
2023-01-08T11:29:58.024Z,100183.41
2023-01-08T11:32:31.558Z,100138.06
2023-01-08T11:35:21.035Z,100154.03
2023-01-08T11:38:02.338Z,100153.47
2023-01-08T11:41:14.622Z,100127.22
2023-01-08T11:44:00.475Z,100083.06
2023-01-08T11:46:46.421Z,100070.59
2023-01-08T11:49:37.218Z,100143.53
2023-01-08T11:52:24.506Z,100138.41
2023-01-08T11:55:17.172Z,100134.03
2023-01-08T11:58:06.977Z,100131.06
2023-01-08T12:00:47.072Z,100134.00
2023-01-08T12:03:42.186Z,100125.91
2023-01-08T12:06:19.085Z,100134.44
2023-01-08T12:09:00.133Z,100125.66
2023-01-08T12:11:43.580Z,100115.91
2023-01-08T12:14:30.606Z,100119.97
2023-01-08T12:17:19.634Z,100110.97
2023-01-08T12:19:53.263Z,100108.25
2023-01-08T12:22:42.363Z,100103.94
2023-01-08T12:25:28.986Z,100096.88
2023-01-08T12:28:09.027Z,100068.94
2023-01-08T12:30:36.833Z,100094.75
2023-01-08T12:33:15.132Z,100052.78
2023-01-08T12:35:54.717Z,100096.06
2023-01-08T12:38:43.518Z,100068.25
2023-01-08T12:41:13.541Z,99994.44
2023-01-08T12:44:05.631Z,100078.16
2023-01-08T12:46:36.116Z,100042.25
2023-01-08T12:49:11.057Z,100018.16
2023-01-08T12:51:56.469Z,100047.38
2023-01-08T12:54:32.462Z,100045.16
2023-01-08T12:57:10.469Z,100021.63
2023-01-08T13:00:00.855Z,100048.31
2023-01-08T13:02:50.057Z,100022.72
2023-01-08T13:05:21.480Z,100043.69
2023-01-08T13:07:56.512Z,100038.06
2023-01-08T13:10:40.907Z,100035.66
2023-01-08T13:13:29.451Z,100002.16
2023-01-08T13:16:19.731Z,100002.31
2023-01-08T13:19:22.100Z,100002.69
2023-01-08T13:21:55.715Z,99984.75
2023-01-08T13:24:31.244Z,100017.72
2023-01-08T13:27:18.662Z,100007.13
2023-01-08T13:29:48.635Z,99997.38
2023-01-08T13:32:27.593Z,99843.66
2023-01-08T13:35:14.720Z,99968.59
2023-01-08T13:37:43.612Z,99935.75
2023-01-08T13:40:46.431Z,99934.66
2023-01-08T13:43:22.795Z,99888.22
2023-01-08T13:46:02.854Z,99955.50
2023-01-08T13:48:48.191Z,99955.31
2023-01-08T13:51:33.052Z,99972.84
2023-01-08T13:54:20.654Z,99952.28
2023-01-08T13:56:54.220Z,99901.47
2023-01-08T13:59:54.401Z,99986.53
2023-01-08T14:02:31.392Z,99978.81
2023-01-08T14:05:01.867Z,99954.53
2023-01-08T14:07:31.993Z,99988.66
2023-01-08T14:10:08.699Z,99969.88
2023-01-08T14:12:40.255Z,99949.31
2023-01-08T14:15:11.435Z,99957.91
2023-01-08T14:17:39.261Z,99944.88
2023-01-08T14:20:12.702Z,99947.81
2023-01-08T14:22:43.369Z,99927.25
2023-01-08T14:25:17.920Z,99926.97
2023-01-08T14:28:00.921Z,99929.50
2023-01-08T14:30:29.517Z,99915.91
2023-01-08T14:32:59.381Z,99874.69
2023-01-08T14:35:36.397Z,99924.75
2023-01-08T14:38:05.917Z,99889.88
2023-01-08T14:40:39.587Z,99917.69
2023-01-08T14:43:11.577Z,99906.53
2023-01-08T14:45:45.187Z,99932.63
2023-01-08T14:48:23.141Z,99903.50
2023-01-08T14:51:07.576Z,99920.94
2023-01-08T14:53:38.063Z,99919.53
2023-01-08T14:56:07.528Z,99854.69
2023-01-08T14:58:39.993Z,99869.59
2023-01-08T15:01:24.288Z,99883.47
2023-01-08T15:04:04.074Z,99863.63
2023-01-08T15:06:33.814Z,99843.69
2023-01-08T15:09:01.713Z,99873.19
2023-01-08T15:11:32.463Z,99885.47
2023-01-08T15:14:00.204Z,99887.88
2023-01-08T15:16:30.008Z,99867.28
2023-01-08T15:19:01.059Z,99888.59
2023-01-08T15:21:29.072Z,99836.16
2023-01-08T15:24:00.406Z,99876.41
2023-01-08T15:26:28.580Z,99841.28
2023-01-08T15:29:04.839Z,99876.94
2023-01-08T15:31:54.395Z,99868.16
2023-01-08T15:34:22.564Z,99842.38
2023-01-08T15:36:50.766Z,99822.13
2023-01-08T15:39:18.733Z,99865.25
2023-01-08T15:42:15.767Z,99848.06
2023-01-08T15:44:43.565Z,99871.34
2023-01-08T15:47:11.433Z,99864.63
2023-01-08T15:49:39.147Z,99857.28
2023-01-08T15:52:10.170Z,99847.44
2023-01-08T15:54:38.336Z,99891.28
2023-01-08T15:57:06.273Z,99858.06
2023-01-08T15:59:37.674Z,99876.38
2023-01-08T16:02:05.451Z,99821.66
2023-01-08T16:04:33.356Z,99841.56
2023-01-08T16:07:04.374Z,99835.13
2023-01-08T16:09:32.219Z,99882.25
2023-01-08T16:12:00.012Z,99864.63
2023-01-08T16:14:28.185Z,99800.91
2023-01-08T16:16:56.556Z,99847.69
2023-01-08T16:19:25.105Z,99833.03
2023-01-08T16:21:52.823Z,99812.38
2023-01-08T16:24:20.778Z,99846.41
2023-01-08T16:26:49.377Z,99841.19
2023-01-08T16:29:17.243Z,99860.50
2023-01-08T16:31:48.562Z,99842.88
2023-01-08T16:34:17.065Z,99811.97
2023-01-08T16:36:44.803Z,99844.88
2023-01-08T16:39:14.596Z,99875.81
2023-01-08T16:41:43.503Z,99861.72
2023-01-08T16:44:19.241Z,99894.53
2023-01-08T16:46:47.790Z,99859.50
2023-01-08T16:49:15.972Z,99817.63
2023-01-08T16:51:44.990Z,99852.16
2023-01-08T16:54:16.808Z,99873.91
2023-01-08T16:56:45.048Z,99894.72
2023-01-08T16:59:22.774Z,99897.13
2023-01-08T17:01:52.707Z,99891.41
2023-01-08T17:04:21.320Z,99895.25
2023-01-08T17:06:50.980Z,99838.88
2023-01-08T17:09:19.343Z,99846.94
2023-01-08T17:11:47.975Z,99863.28
2023-01-08T17:14:15.757Z,99847.69
2023-01-08T17:16:45.507Z,99837.97
2023-01-08T17:19:14.252Z,99808.81
2023-01-08T17:21:42.208Z,99792.94
2023-01-08T17:24:10.329Z,99802.38
2023-01-08T17:26:38.227Z,99776.44
2023-01-08T17:29:06.471Z,99856.78
2023-01-08T17:31:40.614Z,99851.56
2023-01-08T17:34:14.119Z,99854.69
2023-01-08T17:36:42.396Z,99847.25
2023-01-08T17:39:12.017Z,99860.84
2023-01-08T17:41:58.182Z,99884.88
2023-01-08T17:44:27.759Z,99868.56
2023-01-08T17:46:56.269Z,99898.78
2023-01-08T17:49:24.077Z,99855.28
2023-01-08T17:51:53.674Z,99890.75
2023-01-08T17:54:22.792Z,99878.75
2023-01-08T17:56:50.767Z,99862.00
2023-01-08T17:59:19.254Z,99920.06
2023-01-08T18:01:47.951Z,99889.22
2023-01-08T18:04:16.407Z,99854.25
2023-01-08T18:06:44.712Z,99896.19
2023-01-08T18:09:13.533Z,99900.53
2023-01-08T18:11:42.587Z,99860.31
2023-01-08T18:14:12.538Z,99820.84
2023-01-08T18:16:45.717Z,99871.69
2023-01-08T18:19:14.428Z,99781.91
2023-01-08T18:21:42.860Z,99848.41
2023-01-08T18:24:11.403Z,99855.28
2023-01-08T18:26:39.135Z,99872.28
2023-01-08T18:29:06.823Z,99873.38
2023-01-08T18:31:34.951Z,99861.13
2023-01-08T18:34:03.976Z,99861.13
2023-01-08T18:36:31.869Z,99873.88
2023-01-08T18:39:02.538Z,99867.75
2023-01-08T18:41:48.769Z,99849.03
2023-01-08T18:44:16.641Z,99848.44
2023-01-08T18:46:45.516Z,99879.25
2023-01-08T18:49:15.827Z,99882.78
2023-01-08T18:51:44.067Z,99882.88
2023-01-08T18:54:13.089Z,99866.16
2023-01-08T18:56:41.252Z,99879.03
2023-01-08T18:59:11.620Z,99861.81
2023-01-08T19:01:39.540Z,99799.31
2023-01-08T19:04:07.689Z,99890.41
2023-01-08T19:06:35.768Z,99817.22
2023-01-08T19:09:04.216Z,99888.09
2023-01-08T19:11:32.052Z,99844.59
2023-01-08T19:13:59.897Z,99847.81
2023-01-08T19:16:28.065Z,99907.84
2023-01-08T19:18:56.925Z,99893.22
2023-01-08T19:21:24.867Z,99898.78
2023-01-08T19:23:53.945Z,99856.38
2023-01-08T19:26:23.321Z,99904.72
2023-01-08T19:28:51.041Z,99886.88
2023-01-08T19:31:19.817Z,99879.03
2023-01-08T19:33:47.954Z,99817.00
2023-01-08T19:36:16.719Z,99861.41
2023-01-08T19:38:44.876Z,99862.94
2023-01-08T19:41:32.421Z,99904.09
2023-01-08T19:44:00.353Z,99905.81
2023-01-08T19:46:28.829Z,99929.38
2023-01-08T19:48:58.444Z,99926.16
2023-01-08T19:51:26.941Z,99921.50
2023-01-08T19:53:57.151Z,99908.31
2023-01-08T19:56:25.699Z,99923.03
2023-01-08T19:58:55.102Z,99914.97
2023-01-08T20:01:25.973Z,99949.91
2023-01-08T20:03:54.791Z,99946.88
2023-01-08T20:06:26.185Z,99919.69
2023-01-08T20:08:58.054Z,99862.44
2023-01-08T20:11:27.197Z,99946.09
2023-01-08T20:13:55.957Z,99951.91
2023-01-08T20:16:24.717Z,99945.97
2023-01-08T20:18:56.890Z,99948.72
2023-01-08T20:21:25.047Z,99903.19
2023-01-08T20:24:02.315Z,99924.91
2023-01-08T20:26:30.480Z,99960.56
2023-01-08T20:28:58.971Z,99964.53
2023-01-08T20:31:32.882Z,99955.06
2023-01-08T20:34:06.987Z,99935.91
2023-01-08T20:36:35.200Z,99924.75
2023-01-08T20:39:06.686Z,99943.78
2023-01-08T20:41:35.066Z,99933.13
2023-01-08T20:44:06.883Z,99941.88
2023-01-08T20:46:36.389Z,99932.72
2023-01-08T20:49:08.223Z,99905.25
2023-01-08T20:51:39.682Z,99954.81
2023-01-08T20:54:10.618Z,99931.34
2023-01-08T20:56:38.458Z,99915.09
2023-01-08T20:59:06.348Z,99907.63
2023-01-08T21:01:35.684Z,99961.63
2023-01-08T21:04:06.528Z,99957.31
2023-01-08T21:06:35.434Z,99963.06
2023-01-08T21:09:07.956Z,99966.28
2023-01-08T21:11:40.648Z,99927.59
2023-01-08T21:14:09.165Z,99957.31
2023-01-08T21:16:39.830Z,99922.38
2023-01-08T21:19:10.862Z,99888.69
2023-01-08T21:21:40.887Z,99930.31
2023-01-08T21:24:11.543Z,99898.09
2023-01-08T21:26:40.723Z,99949.47
2023-01-08T21:29:09.487Z,99960.84
2023-01-08T21:31:38.600Z,99933.75
2023-01-08T21:34:09.200Z,99946.34
2023-01-08T21:36:39.735Z,99960.66
2023-01-08T21:39:10.447Z,99895.75
2023-01-08T21:41:57.111Z,99928.00
2023-01-08T21:44:46.633Z,99903.25
2023-01-08T21:47:18.977Z,99904.22
2023-01-08T21:49:49.954Z,99884.38
2023-01-08T21:52:36.465Z,99852.88
2023-01-08T21:55:04.688Z,99920.06
2023-01-08T21:57:38.727Z,99953.19
2023-01-08T22:00:07.596Z,99920.56
2023-01-08T22:02:36.255Z,99901.03
2023-01-08T22:05:05.245Z,99898.78
2023-01-08T22:07:33.419Z,99905.75
2023-01-08T22:10:01.339Z,99906.84
2023-01-08T22:12:29.802Z,99900.81
2023-01-08T22:14:58.644Z,99934.75
2023-01-08T22:17:30.034Z,99908.75
2023-01-08T22:19:58.272Z,99952.97
2023-01-08T22:22:26.911Z,99918.19
2023-01-08T22:24:54.986Z,99939.28
2023-01-08T22:27:23.236Z,99899.78
2023-01-08T22:29:51.082Z,99955.69
2023-01-08T22:32:19.056Z,99884.38
2023-01-08T22:34:46.815Z,99935.44
2023-01-08T22:37:14.768Z,99912.66
2023-01-08T22:39:42.573Z,99952.00
2023-01-08T22:42:12.099Z,99919.72
2023-01-08T22:44:40.208Z,99924.97
2023-01-08T22:47:10.253Z,99930.09
2023-01-08T22:49:39.175Z,99947.56
2023-01-08T22:52:07.739Z,99942.00
2023-01-08T22:54:35.567Z,99950.38
2023-01-08T22:57:03.909Z,99952.69
2023-01-08T22:59:32.136Z,99961.75
2023-01-08T23:02:00.199Z,99970.94
2023-01-08T23:04:30.869Z,99966.31
2023-01-08T23:06:58.736Z,99917.69
2023-01-08T23:09:26.609Z,99925.38
2023-01-08T23:11:54.547Z,99933.44
2023-01-08T23:14:22.654Z,99920.53
2023-01-08T23:16:50.687Z,99975.84
2023-01-08T23:19:18.437Z,99983.22
2023-01-08T23:21:46.280Z,99969.00
2023-01-08T23:24:15.668Z,99958.81
2023-01-08T23:26:44.158Z,99932.00
2023-01-08T23:29:12.197Z,99975.25
2023-01-08T23:31:40.250Z,99998.22
2023-01-08T23:34:08.093Z,99997.41
2023-01-08T23:36:36.070Z,99963.81
2023-01-08T23:39:04.522Z,99997.41
2023-01-08T23:41:34.843Z,99979.09
2023-01-08T23:44:11.332Z,100004.16
2023-01-08T23:46:39.369Z,99937.22
2023-01-08T23:49:07.466Z,100006.09
2023-01-08T23:51:35.929Z,99981.84
2023-01-08T23:54:03.856Z,100002.38
2023-01-08T23:56:31.964Z,99982.97
2023-01-08T23:58:59.945Z,99964.84
